createdAt,value
2019-05-26T00:00:44.357Z,37.70
2019-05-26T00:03:13.046Z,41.47
2019-05-26T00:05:41.663Z,38.03
2019-05-26T00:08:10.206Z,39.78
2019-05-26T00:10:38.717Z,40.20
2019-05-26T00:13:07.213Z,40.47
2019-05-26T00:15:35.684Z,43.93
2019-05-26T00:18:04.256Z,44.27
2019-05-26T00:20:32.737Z,45.67
2019-05-26T00:23:01.533Z,46.03
2019-05-26T00:25:30.030Z,50.45
2019-05-26T00:27:58.589Z,48.45
2019-05-26T00:30:27.207Z,52.45
2019-05-26T00:32:55.780Z,53.60
2019-05-26T00:35:24.353Z,53.73
2019-05-26T00:37:52.859Z,53.17
2019-05-26T00:40:21.852Z,59.93
2019-05-26T00:42:50.320Z,51.33
2019-05-26T00:45:19.099Z,58.45
2019-05-26T00:47:47.785Z,61.68
2019-05-26T00:50:16.733Z,60.50
2019-05-26T00:52:45.384Z,61.63
2019-05-26T00:55:15.213Z,62.00
2019-05-26T00:57:44.080Z,64.30
2019-05-26T01:00:13.044Z,62.10
2019-05-26T01:02:41.547Z,56.92
2019-05-26T01:05:10.457Z,61.70
2019-05-26T01:07:38.932Z,69.77
2019-05-26T01:10:08.379Z,69.07
2019-05-26T01:12:36.903Z,65.10
2019-05-26T01:15:07.036Z,63.77
2019-05-26T01:17:35.664Z,61.10
2019-05-26T01:20:05.447Z,64.83
2019-05-26T01:22:33.931Z,65.13
2019-05-26T01:25:02.498Z,58.30
2019-05-26T01:27:31.032Z,56.47
2019-05-26T01:29:59.508Z,54.93
2019-05-26T01:32:28.160Z,57.27
2019-05-26T01:34:56.895Z,57.97
2019-05-26T01:37:25.681Z,54.70
2019-05-26T01:39:54.727Z,60.50
2019-05-26T01:42:23.435Z,61.08
2019-05-26T01:44:52.241Z,61.13
2019-05-26T01:47:20.728Z,56.67
2019-05-26T01:49:49.321Z,56.37
2019-05-26T01:52:17.823Z,56.40
2019-05-26T01:54:46.328Z,59.10
2019-05-26T01:57:14.915Z,58.45
2019-05-26T01:59:43.465Z,57.38
2019-05-26T02:02:12.059Z,55.83
2019-05-26T02:04:40.588Z,62.33
2019-05-26T02:07:09.081Z,57.43
2019-05-26T02:09:37.737Z,60.35
2019-05-26T02:12:06.416Z,59.27
2019-05-26T02:14:34.888Z,62.43
2019-05-26T02:17:03.515Z,63.23
2019-05-26T02:19:31.987Z,56.95
2019-05-26T02:22:00.713Z,59.93
2019-05-26T02:24:29.283Z,58.98
2019-05-26T02:26:57.978Z,58.85
2019-05-26T02:29:26.575Z,57.27
2019-05-26T02:31:55.087Z,59.00
2019-05-26T02:34:23.623Z,62.13
2019-05-26T02:36:52.194Z,65.22
2019-05-26T02:39:20.756Z,67.78
2019-05-26T02:41:49.335Z,70.80
2019-05-26T02:44:17.891Z,66.50
2019-05-26T02:46:46.444Z,71.47
2019-05-26T02:49:15.148Z,74.67
2019-05-26T02:51:43.699Z,72.35
2019-05-26T02:54:12.252Z,74.05
2019-05-26T02:56:40.726Z,74.43
2019-05-26T02:59:09.233Z,69.92
2019-05-26T03:01:38.005Z,74.87
2019-05-26T03:04:06.989Z,69.37
2019-05-26T03:06:36.374Z,74.23
2019-05-26T03:09:21.757Z,77.53
2019-05-26T03:11:38.899Z,73.33
2019-05-26T03:14:09.206Z,71.82
2019-05-26T03:16:38.227Z,78.17
2019-05-26T03:19:06.759Z,83.07
2019-05-26T03:21:35.568Z,80.05
2019-05-26T03:24:04.832Z,77.90
2019-05-26T03:26:33.466Z,79.75
2019-05-26T03:29:02.117Z,83.70
2019-05-26T03:31:30.819Z,87.70
2019-05-26T03:33:59.428Z,80.80
2019-05-26T03:36:27.981Z,87.80
2019-05-26T03:38:56.569Z,87.33
2019-05-26T03:41:25.109Z,82.88
2019-05-26T03:43:54.448Z,88.27
2019-05-26T03:46:22.986Z,80.38
2019-05-26T03:48:51.628Z,78.07
2019-05-26T03:51:20.166Z,84.67
2019-05-26T03:53:48.709Z,80.32
2019-05-26T03:56:17.439Z,81.42
2019-05-26T03:58:46.423Z,90.15
2019-05-26T04:01:15.129Z,83.03
2019-05-26T04:03:43.684Z,84.37
2019-05-26T04:06:12.225Z,82.82
2019-05-26T04:08:40.812Z,85.60
2019-05-26T04:11:09.422Z,84.15
2019-05-26T04:13:37.939Z,84.83
2019-05-26T04:16:06.880Z,78.40
2019-05-26T04:18:35.430Z,79.85
2019-05-26T04:21:04.249Z,79.45
2019-05-26T04:23:32.898Z,71.05
2019-05-26T04:26:02.541Z,68.78
2019-05-26T04:28:31.174Z,65.13
2019-05-26T04:30:59.714Z,64.53
2019-05-26T04:33:28.460Z,70.28
2019-05-26T04:35:57.028Z,64.40
2019-05-26T04:38:25.533Z,59.00
2019-05-26T04:40:54.065Z,60.00
2019-05-26T04:43:22.641Z,62.23
2019-05-26T04:45:51.205Z,59.77
2019-05-26T04:48:19.724Z,55.83
2019-05-26T04:50:48.301Z,62.10
2019-05-26T04:53:16.834Z,60.95
2019-05-26T04:55:45.376Z,60.57
2019-05-26T04:58:13.935Z,61.70
2019-05-26T05:00:42.665Z,55.38
2019-05-26T05:03:11.224Z,55.95
2019-05-26T05:05:40.080Z,52.25
2019-05-26T05:08:08.633Z,48.77
2019-05-26T05:10:42.359Z,49.50
2019-05-26T05:13:07.520Z,45.47
2019-05-26T05:15:36.057Z,45.63
2019-05-26T05:18:04.598Z,39.70
2019-05-26T05:20:33.164Z,42.05
2019-05-26T05:23:01.644Z,40.80
2019-05-26T05:25:30.187Z,40.50
2019-05-26T05:27:58.683Z,38.53
2019-05-26T05:30:27.304Z,38.17
2019-05-26T05:32:56.020Z,35.78
2019-05-26T05:35:24.745Z,34.13
2019-05-26T05:37:53.619Z,32.38
2019-05-26T05:40:22.348Z,30.60
2019-05-26T05:42:50.935Z,29.40
2019-05-26T05:45:19.589Z,30.15
2019-05-26T05:47:48.140Z,28.85
2019-05-26T05:50:17.067Z,27.60
2019-05-26T05:52:45.611Z,27.07
2019-05-26T05:55:14.140Z,25.43
2019-05-26T05:57:42.639Z,24.30
2019-05-26T06:00:11.443Z,24.82
2019-05-26T06:02:39.990Z,24.87
2019-05-26T06:05:09.253Z,24.20
2019-05-26T06:07:37.746Z,23.52
2019-05-26T06:10:08.179Z,21.27
2019-05-26T06:12:36.834Z,20.97
2019-05-26T06:15:14.442Z,21.42
2019-05-26T06:17:43.432Z,21.52
2019-05-26T06:20:12.647Z,19.87
2019-05-26T06:22:41.188Z,20.30
2019-05-26T06:25:10.749Z,19.70
2019-05-26T06:27:39.380Z,19.60
2019-05-26T06:30:09.897Z,18.98
2019-05-26T06:32:38.499Z,17.70
2019-05-26T06:35:07.077Z,17.10
2019-05-26T06:37:35.565Z,16.62
2019-05-26T06:40:06.488Z,15.57
2019-05-26T06:42:34.996Z,16.90
2019-05-26T06:45:04.727Z,15.70
2019-05-26T06:47:33.329Z,16.00
2019-05-26T06:50:02.301Z,14.93
2019-05-26T06:52:30.853Z,14.83
2019-05-26T06:54:59.392Z,15.90
2019-05-26T06:57:27.896Z,14.58
2019-05-26T06:59:56.443Z,15.37
2019-05-26T07:02:25.312Z,15.15
2019-05-26T07:04:53.878Z,15.23
2019-05-26T07:07:22.435Z,14.95
2019-05-26T07:09:51.036Z,14.93
2019-05-26T07:12:19.601Z,15.60
2019-05-26T07:14:48.068Z,12.53
2019-05-26T07:17:20.366Z,14.73
2019-05-26T07:19:46.836Z,14.10
2019-05-26T07:22:15.322Z,14.10
2019-05-26T07:24:43.932Z,14.47
2019-05-26T07:27:12.504Z,14.58
2019-05-26T07:29:41.249Z,15.60
2019-05-26T07:32:09.732Z,15.13
2019-05-26T07:34:38.304Z,13.78
2019-05-26T07:37:07.066Z,13.83
2019-05-26T07:39:35.608Z,14.30
2019-05-26T07:42:10.606Z,15.00
2019-05-26T07:44:34.503Z,14.68
2019-05-26T07:47:03.253Z,14.18
2019-05-26T07:49:31.835Z,14.73
2019-05-26T07:52:00.569Z,15.00
2019-05-26T07:54:29.149Z,16.37
2019-05-26T07:56:57.716Z,14.60
2019-05-26T07:59:26.302Z,14.40
2019-05-26T08:01:55.004Z,14.63
2019-05-26T08:04:23.844Z,14.73
2019-05-26T08:06:52.422Z,15.43
2019-05-26T08:09:20.969Z,14.30
2019-05-26T08:11:49.543Z,14.98
2019-05-26T08:14:18.292Z,13.83
2019-05-26T08:16:46.855Z,13.93
2019-05-26T08:19:15.425Z,14.03
2019-05-26T08:21:44.239Z,13.90
2019-05-26T08:24:12.779Z,13.30
2019-05-26T08:26:41.352Z,14.47
2019-05-26T08:29:09.816Z,13.65
2019-05-26T08:31:38.374Z,13.80
2019-05-26T08:34:07.016Z,13.48
2019-05-26T08:36:35.631Z,13.93
2019-05-26T08:39:07.255Z,13.67
2019-05-26T08:41:35.832Z,14.60
2019-05-26T08:44:04.909Z,13.55
2019-05-26T08:46:33.377Z,11.90
2019-05-26T08:49:02.262Z,12.13
2019-05-26T08:51:30.772Z,12.43
2019-05-26T08:53:59.246Z,11.35
2019-05-26T08:56:27.817Z,11.70
2019-05-26T08:58:56.508Z,11.53
2019-05-26T09:01:25.127Z,11.73
2019-05-26T09:03:53.749Z,10.60
2019-05-26T09:06:22.267Z,11.18
2019-05-26T09:08:50.818Z,10.87
2019-05-26T09:11:19.854Z,10.40
2019-05-26T09:13:48.595Z,10.70
2019-05-26T09:16:17.208Z,9.90
2019-05-26T09:18:45.836Z,9.47
2019-05-26T09:21:14.400Z,9.70
2019-05-26T09:23:43.205Z,8.83
2019-05-26T09:26:11.830Z,9.43
2019-05-26T09:28:40.703Z,8.95
2019-05-26T09:31:09.270Z,9.60
2019-05-26T09:33:37.880Z,9.80
2019-05-26T09:36:06.504Z,8.50
2019-05-26T09:38:35.066Z,9.40
2019-05-26T09:41:03.817Z,8.60
2019-05-26T09:43:32.334Z,7.65
2019-05-26T09:46:00.886Z,8.00
2019-05-26T09:48:29.714Z,7.83
2019-05-26T09:50:58.312Z,8.03
2019-05-26T09:53:26.844Z,9.00
2019-05-26T09:55:55.405Z,8.37
2019-05-26T09:58:23.871Z,9.10
2019-05-26T10:00:52.605Z,8.00
2019-05-26T10:03:21.456Z,8.03
2019-05-26T10:05:49.985Z,7.90
2019-05-26T10:08:18.454Z,7.67
2019-05-26T10:10:47.157Z,8.00
2019-05-26T10:13:30.580Z,8.63
2019-05-26T10:15:45.868Z,7.40
2019-05-26T10:18:14.380Z,7.90
2019-05-26T10:20:43.073Z,7.47
2019-05-26T10:23:11.528Z,7.77
2019-05-26T10:25:40.351Z,8.20
2019-05-26T10:28:09.033Z,7.80
2019-05-26T10:30:37.571Z,7.45
2019-05-26T10:33:06.224Z,7.33
2019-05-26T10:35:34.699Z,7.20
2019-05-26T10:38:03.170Z,8.00
2019-05-26T10:40:31.659Z,8.40
2019-05-26T10:43:00.142Z,8.05
2019-05-26T10:45:28.676Z,8.10
2019-05-26T10:47:57.180Z,7.70
2019-05-26T10:50:25.775Z,7.03
2019-05-26T10:52:54.253Z,8.68
2019-05-26T10:55:22.889Z,9.50
2019-05-26T10:57:51.445Z,8.70
2019-05-26T11:00:20.984Z,8.80
2019-05-26T11:02:50.466Z,8.30
2019-05-26T11:05:19.005Z,7.28
2019-05-26T11:07:47.539Z,8.08
2019-05-26T11:10:16.661Z,8.10
2019-05-26T11:12:45.467Z,7.90
2019-05-26T11:15:14.773Z,8.10
2019-05-26T11:17:43.336Z,8.23
2019-05-26T11:20:12.642Z,9.48
2019-05-26T11:22:41.226Z,8.60
2019-05-26T11:25:10.964Z,8.03
2019-05-26T11:27:39.510Z,7.87
2019-05-26T11:30:13.573Z,8.23
2019-05-26T11:32:42.405Z,8.30
2019-05-26T11:35:11.767Z,8.58
2019-05-26T11:37:40.365Z,8.00
2019-05-26T11:40:10.239Z,8.43
2019-05-26T11:42:38.702Z,9.07
2019-05-26T11:45:08.696Z,8.90
2019-05-26T11:47:37.341Z,8.75
2019-05-26T11:50:09.313Z,8.30
2019-05-26T11:52:38.007Z,9.40
2019-05-26T11:55:09.741Z,9.23
2019-05-26T11:57:38.275Z,9.00
2019-05-26T12:00:12.453Z,9.50
2019-05-26T12:02:41.260Z,8.45
2019-05-26T12:05:09.967Z,8.60
2019-05-26T12:07:38.608Z,8.40
2019-05-26T12:10:07.806Z,8.40
2019-05-26T12:12:36.291Z,8.40
2019-05-26T12:15:10.972Z,7.53
2019-05-26T12:17:40.156Z,7.53
2019-05-26T12:20:10.538Z,7.20
2019-05-26T12:22:39.221Z,8.10
2019-05-26T12:25:09.649Z,8.10
2019-05-26T12:27:38.244Z,7.78
2019-05-26T12:30:08.983Z,7.92
2019-05-26T12:32:37.521Z,8.00
2019-05-26T12:35:08.091Z,7.90
2019-05-26T12:37:36.777Z,7.70
2019-05-26T12:40:06.713Z,7.20
2019-05-26T12:42:35.320Z,7.05
2019-05-26T12:45:08.204Z,7.47
2019-05-26T12:47:36.840Z,7.10
2019-05-26T12:50:07.152Z,6.35
2019-05-26T12:52:35.607Z,5.90
2019-05-26T12:55:08.962Z,5.60
2019-05-26T12:57:36.126Z,6.00
2019-05-26T13:00:08.353Z,5.93
2019-05-26T13:02:36.934Z,6.35
2019-05-26T13:05:07.407Z,5.60
2019-05-26T13:07:36.121Z,5.90
2019-05-26T13:10:06.828Z,5.87
2019-05-26T13:12:36.287Z,6.17
2019-05-26T13:15:07.835Z,6.10
2019-05-26T13:17:36.442Z,5.80
2019-05-26T13:20:09.992Z,6.40
2019-05-26T13:22:40.265Z,5.83
2019-05-26T13:25:10.100Z,5.47
2019-05-26T13:27:38.725Z,4.80
2019-05-26T13:30:12.931Z,4.70
2019-05-26T13:32:41.846Z,4.40
2019-05-26T13:35:10.857Z,4.10
2019-05-26T13:37:39.477Z,5.60
2019-05-26T13:40:08.947Z,4.03
2019-05-26T13:42:37.590Z,4.03
2019-05-26T13:45:21.828Z,4.30
2019-05-26T13:47:39.873Z,4.40
2019-05-26T13:50:08.866Z,3.92
2019-05-26T13:52:37.898Z,4.28
2019-05-26T13:55:07.895Z,4.62
2019-05-26T13:57:36.441Z,4.28
2019-05-26T14:00:16.239Z,4.67
2019-05-26T14:02:44.967Z,3.60
2019-05-26T14:05:14.183Z,3.22
2019-05-26T14:07:42.807Z,3.60
2019-05-26T14:10:12.018Z,3.80
2019-05-26T14:12:41.397Z,3.60
2019-05-26T14:15:10.370Z,3.47
2019-05-26T14:17:39.569Z,3.50
2019-05-26T14:20:09.339Z,3.30
2019-05-26T14:22:38.227Z,3.10
2019-05-26T14:25:08.124Z,3.00
2019-05-26T14:27:37.077Z,3.20
2019-05-26T14:30:06.811Z,2.70
2019-05-26T14:32:35.407Z,2.80
2019-05-26T14:35:05.423Z,2.83
2019-05-26T14:37:34.052Z,2.60
2019-05-26T14:40:02.523Z,2.53
2019-05-26T14:42:31.155Z,2.67
2019-05-26T14:45:03.692Z,2.50
2019-05-26T14:47:29.896Z,2.70
2019-05-26T14:49:58.381Z,2.50
2019-05-26T14:52:26.923Z,2.53
2019-05-26T14:54:55.438Z,2.50
2019-05-26T14:57:23.986Z,2.40
2019-05-26T14:59:52.515Z,2.80
2019-05-26T15:02:21.006Z,2.40
2019-05-26T15:04:49.612Z,2.50
2019-05-26T15:07:18.105Z,2.30
2019-05-26T15:09:46.572Z,2.27
2019-05-26T15:12:15.111Z,2.30
2019-05-26T15:14:43.924Z,2.50
2019-05-26T15:17:12.463Z,2.70
2019-05-26T15:19:40.965Z,3.10
2019-05-26T15:22:09.581Z,2.72
2019-05-26T15:24:38.384Z,10.00
2019-05-26T15:27:07.075Z,7.70
2019-05-26T15:29:35.542Z,4.00
2019-05-26T15:32:04.348Z,5.05
2019-05-26T15:34:32.949Z,4.60
2019-05-26T15:37:01.576Z,2.80
2019-05-26T15:39:30.103Z,2.50
2019-05-26T15:41:58.567Z,2.90
2019-05-26T15:44:27.152Z,2.50
2019-05-26T15:46:55.676Z,2.30
2019-05-26T15:49:24.168Z,2.20
2019-05-26T15:51:52.700Z,2.50
2019-05-26T15:54:21.163Z,2.42
2019-05-26T15:56:49.668Z,2.60
2019-05-26T15:59:18.416Z,2.50
2019-05-26T16:01:47.389Z,2.30
2019-05-26T16:04:16.183Z,2.60
2019-05-26T16:06:44.668Z,2.30
2019-05-26T16:09:13.147Z,2.70
2019-05-26T16:11:43.681Z,2.60
2019-05-26T16:14:11.892Z,2.07
2019-05-26T16:16:41.856Z,2.40
2019-05-26T16:19:10.639Z,2.58
2019-05-26T16:21:39.182Z,2.30
2019-05-26T16:24:07.713Z,2.30
2019-05-26T16:26:36.205Z,2.20
2019-05-26T16:29:05.381Z,2.02
2019-05-26T16:31:34.017Z,2.60
2019-05-26T16:34:02.630Z,2.10
2019-05-26T16:36:31.203Z,2.40
2019-05-26T16:38:59.760Z,2.40
2019-05-26T16:41:28.291Z,2.40
2019-05-26T16:43:56.788Z,2.50
2019-05-26T16:46:25.444Z,2.40
2019-05-26T16:48:54.904Z,2.40
2019-05-26T16:51:23.605Z,2.40
2019-05-26T16:53:52.135Z,2.25
2019-05-26T16:56:20.637Z,2.20
2019-05-26T16:58:49.182Z,2.50
2019-05-26T17:01:17.787Z,2.30
2019-05-26T17:03:46.367Z,2.47
2019-05-26T17:06:14.906Z,2.40
2019-05-26T17:08:43.368Z,2.42
2019-05-26T17:11:11.871Z,2.40
2019-05-26T17:13:40.353Z,2.50
2019-05-26T17:16:08.977Z,2.90
2019-05-26T17:18:38.441Z,3.00
2019-05-26T17:21:07.139Z,2.70
2019-05-26T17:23:35.830Z,2.60
2019-05-26T17:26:04.499Z,2.60
2019-05-26T17:28:32.998Z,2.87
2019-05-26T17:31:01.619Z,2.90
2019-05-26T17:33:30.085Z,2.42
2019-05-26T17:35:58.652Z,2.60
2019-05-26T17:38:27.199Z,2.50
2019-05-26T17:40:55.752Z,2.50
2019-05-26T17:43:24.415Z,2.20
2019-05-26T17:45:52.884Z,2.47
2019-05-26T17:48:21.422Z,2.70
2019-05-26T17:50:49.981Z,2.70
2019-05-26T17:53:18.584Z,2.60
2019-05-26T17:55:47.433Z,2.60
2019-05-26T17:58:15.969Z,2.90
2019-05-26T18:00:44.606Z,2.40
2019-05-26T18:03:32.524Z,2.30
2019-05-26T18:06:01.151Z,2.50
2019-05-26T18:08:29.628Z,2.47
2019-05-26T18:10:58.856Z,2.50
2019-05-26T18:13:27.392Z,2.70
2019-05-26T18:15:55.845Z,2.37
2019-05-26T18:18:24.331Z,2.50
2019-05-26T18:20:52.786Z,2.30
2019-05-26T18:23:21.247Z,2.40
2019-05-26T18:25:49.733Z,2.60
2019-05-26T18:28:18.271Z,2.47
2019-05-26T18:30:46.900Z,2.53
2019-05-26T18:33:15.383Z,2.30
2019-05-26T18:35:43.956Z,2.60
2019-05-26T18:38:12.508Z,2.87
2019-05-26T18:40:41.887Z,2.60
2019-05-26T18:43:10.421Z,2.70
2019-05-26T18:45:39.047Z,2.92
2019-05-26T18:48:07.724Z,2.60
2019-05-26T18:50:36.420Z,2.60
2019-05-26T18:53:05.526Z,3.10
2019-05-26T18:55:34.142Z,2.87
2019-05-26T18:58:02.725Z,3.20
2019-05-26T19:00:31.485Z,2.65
2019-05-26T19:03:00.063Z,2.90
2019-05-26T19:05:33.818Z,2.90
2019-05-26T19:07:58.712Z,3.50
2019-05-26T19:10:27.276Z,3.10
2019-05-26T19:12:55.807Z,3.00
2019-05-26T19:15:25.300Z,3.05
2019-05-26T19:17:53.896Z,3.10
2019-05-26T19:20:22.801Z,3.07
2019-05-26T19:22:53.431Z,3.00
2019-05-26T19:25:21.696Z,3.33
2019-05-26T19:27:50.508Z,3.10
2019-05-26T19:30:20.308Z,3.03
2019-05-26T19:32:48.803Z,3.40
2019-05-26T19:35:17.575Z,3.53
2019-05-26T19:37:46.037Z,3.70
2019-05-26T19:40:16.443Z,3.10
2019-05-26T19:42:44.974Z,3.70
2019-05-26T19:45:14.238Z,3.50
2019-05-26T19:47:42.745Z,3.53
2019-05-26T19:50:11.612Z,3.92
2019-05-26T19:52:40.167Z,3.97
2019-05-26T19:55:08.842Z,3.80
2019-05-26T19:57:37.589Z,3.80
2019-05-26T20:00:09.542Z,3.95
2019-05-26T20:02:38.127Z,3.52
2019-05-26T20:05:08.405Z,3.60
2019-05-26T20:07:37.012Z,4.00
2019-05-26T20:10:07.539Z,4.27
2019-05-26T20:12:36.145Z,3.95
2019-05-26T20:15:07.344Z,4.20
2019-05-26T20:17:35.815Z,4.60
2019-05-26T20:20:07.422Z,4.27
2019-05-26T20:22:36.048Z,4.20
2019-05-26T20:25:07.161Z,4.20
2019-05-26T20:27:36.720Z,4.63
2019-05-26T20:30:07.028Z,4.53
2019-05-26T20:32:35.495Z,4.40
2019-05-26T20:35:06.332Z,4.90
2019-05-26T20:37:34.932Z,5.10
2019-05-26T20:40:05.735Z,4.95
2019-05-26T20:42:34.483Z,5.07
2019-05-26T20:45:03.682Z,4.53
2019-05-26T20:47:32.251Z,5.95
2019-05-26T20:50:00.727Z,6.22
2019-05-26T20:52:29.267Z,5.80
2019-05-26T20:54:57.927Z,5.40
2019-05-26T20:57:26.499Z,5.50
2019-05-26T20:59:55.058Z,6.10
2019-05-26T21:02:23.544Z,6.40
2019-05-26T21:04:52.075Z,6.17
2019-05-26T21:07:22.499Z,8.10
2019-05-26T21:09:50.968Z,7.00
2019-05-26T21:12:19.563Z,6.97
2019-05-26T21:14:48.048Z,7.17
2019-05-26T21:17:16.513Z,7.93
2019-05-26T21:19:45.064Z,7.50
2019-05-26T21:22:13.614Z,7.90
2019-05-26T21:24:42.080Z,7.35
2019-05-26T21:27:10.684Z,7.60
2019-05-26T21:29:39.182Z,8.00
2019-05-26T21:32:07.984Z,7.80
2019-05-26T21:34:36.780Z,7.90
2019-05-26T21:37:05.514Z,7.37
2019-05-26T21:39:34.308Z,7.47
2019-05-26T21:42:03.098Z,8.07
2019-05-26T21:44:31.652Z,7.60
2019-05-26T21:47:00.216Z,7.90
2019-05-26T21:49:28.726Z,7.53
2019-05-26T21:51:57.233Z,7.15
2019-05-26T21:54:25.702Z,6.87
2019-05-26T21:56:55.236Z,6.97
2019-05-26T21:59:23.796Z,7.55
2019-05-26T22:01:52.270Z,7.13
2019-05-26T22:04:20.784Z,6.80
2019-05-26T22:06:49.270Z,7.53
2019-05-26T22:09:17.727Z,7.87
2019-05-26T22:11:46.270Z,7.90
2019-05-26T22:14:14.824Z,7.87
2019-05-26T22:16:43.435Z,7.47
2019-05-26T22:19:11.973Z,8.68
2019-05-26T22:21:40.659Z,8.23
2019-05-26T22:24:09.457Z,7.62
2019-05-26T22:26:37.960Z,8.00
2019-05-26T22:29:06.443Z,8.00
2019-05-26T22:31:34.993Z,7.40
2019-05-26T22:34:03.517Z,7.80
2019-05-26T22:36:32.155Z,7.70
2019-05-26T22:39:00.688Z,7.30
2019-05-26T22:41:29.149Z,7.15
2019-05-26T22:43:57.635Z,7.60
2019-05-26T22:46:26.243Z,7.75
2019-05-26T22:48:54.788Z,6.92
2019-05-26T22:51:23.353Z,7.00
2019-05-26T22:53:51.812Z,7.10
2019-05-26T22:56:20.280Z,7.15
2019-05-26T22:58:48.831Z,7.03
2019-05-26T23:01:17.293Z,6.72
2019-05-26T23:03:45.750Z,7.50
2019-05-26T23:06:14.288Z,7.50
2019-05-26T23:08:42.909Z,7.60
2019-05-26T23:11:11.419Z,7.85
2019-05-26T23:13:39.911Z,7.20
2019-05-26T23:16:09.301Z,8.27
2019-05-26T23:18:37.921Z,8.08
2019-05-26T23:21:06.480Z,7.50
2019-05-26T23:23:34.949Z,7.87
2019-05-26T23:26:03.475Z,7.93
2019-05-26T23:28:32.082Z,8.30
2019-05-26T23:31:00.569Z,8.37
2019-05-26T23:33:29.065Z,8.18
2019-05-26T23:35:57.535Z,8.07
2019-05-26T23:38:26.064Z,8.45
2019-05-26T23:40:54.559Z,7.63
2019-05-26T23:43:23.107Z,8.30
2019-05-26T23:45:51.656Z,7.60
2019-05-26T23:48:20.132Z,8.18
2019-05-26T23:50:48.595Z,8.00
2019-05-26T23:53:17.094Z,7.40
2019-05-26T23:55:45.635Z,7.83
2019-05-26T23:58:14.128Z,7.63
